createdAt,value
2022-12-28T00:00:13.560Z,1017.85
2022-12-28T00:01:13.442Z,1017.82
2022-12-28T00:02:13.579Z,1017.76
2022-12-28T00:03:13.749Z,1017.75
2022-12-28T00:04:14.199Z,1017.70
2022-12-28T00:05:13.088Z,1017.70
2022-12-28T00:06:13.160Z,1017.72
2022-12-28T00:07:13.268Z,1017.78
2022-12-28T00:08:13.544Z,1017.67
2022-12-28T00:09:13.432Z,1017.68
2022-12-28T00:10:13.496Z,1017.67
2022-12-28T00:11:20.342Z,1017.67
2022-12-28T00:12:13.576Z,1017.70
2022-12-28T00:13:13.469Z,1017.63
2022-12-28T00:14:13.531Z,1017.49
2022-12-28T00:15:13.656Z,1017.49
2022-12-28T00:16:13.644Z,1017.51
2022-12-28T00:17:13.703Z,1017.51
2022-12-28T00:18:13.577Z,1017.59
2022-12-28T00:19:13.517Z,1017.55
2022-12-28T00:20:13.520Z,1017.46
2022-12-28T00:21:13.583Z,1017.43
2022-12-28T00:22:13.504Z,1017.40
2022-12-28T00:23:13.454Z,1017.39
2022-12-28T00:24:13.565Z,1017.40
2022-12-28T00:25:13.761Z,1017.40
2022-12-28T00:26:14.154Z,1017.45
2022-12-28T00:27:13.267Z,1017.43
2022-12-28T00:28:13.525Z,1017.37
2022-12-28T00:29:13.568Z,1017.42
2022-12-28T00:30:13.448Z,1017.36
2022-12-28T00:31:13.369Z,1017.45
2022-12-28T00:32:13.467Z,1017.38
2022-12-28T00:33:13.490Z,1017.32
2022-12-28T00:34:13.385Z,1017.42
2022-12-28T00:35:13.527Z,1017.49
2022-12-28T00:36:13.527Z,1017.52
2022-12-28T00:37:13.542Z,1017.41
2022-12-28T00:38:13.805Z,1017.47
2022-12-28T00:39:13.896Z,1017.46
2022-12-28T00:40:15.433Z,1017.50
2022-12-28T00:41:13.265Z,1017.41
2022-12-28T00:42:13.192Z,1017.41
2022-12-28T00:43:13.500Z,1017.47
2022-12-28T00:44:13.426Z,1017.45
2022-12-28T00:45:13.529Z,1017.37
2022-12-28T00:46:13.606Z,1017.42
2022-12-28T00:47:14.121Z,1017.42
2022-12-28T00:48:13.240Z,1017.39
2022-12-28T00:49:13.451Z,1017.37
2022-12-28T00:50:13.479Z,1017.37
2022-12-28T00:51:13.353Z,1017.37
2022-12-28T00:52:13.471Z,1017.35
2022-12-28T00:53:13.467Z,1017.40
2022-12-28T00:54:13.371Z,1017.30
2022-12-28T00:55:13.509Z,1017.38
2022-12-28T00:56:13.500Z,1017.24
2022-12-28T00:57:13.506Z,1017.31
2022-12-28T00:58:13.715Z,1017.28
2022-12-28T00:59:13.867Z,1017.18
2022-12-28T01:00:13.251Z,1017.28
2022-12-28T01:01:13.325Z,1017.23
2022-12-28T01:02:13.835Z,1017.08
2022-12-28T01:03:13.032Z,1017.19
2022-12-28T01:04:13.151Z,1017.20
2022-12-28T01:05:13.049Z,1017.21
2022-12-28T01:06:13.430Z,1017.15
2022-12-28T01:07:13.799Z,1017.12
2022-12-28T01:08:13.891Z,1017.06
2022-12-28T01:09:12.841Z,1016.98
2022-12-28T01:10:14.074Z,1017.06
2022-12-28T01:11:13.303Z,1016.97
2022-12-28T01:12:13.632Z,1016.94
2022-12-28T01:13:13.768Z,1016.90
2022-12-28T01:14:14.121Z,1016.83
2022-12-28T01:15:13.363Z,1016.80
2022-12-28T01:16:13.900Z,1016.75
2022-12-28T01:17:13.004Z,1016.80
2022-12-28T01:18:13.057Z,1016.73
2022-12-28T01:19:13.027Z,1016.73
2022-12-28T01:20:13.088Z,1016.75
2022-12-28T01:21:13.036Z,1016.83
2022-12-28T01:22:13.103Z,1016.81
2022-12-28T01:23:13.148Z,1016.94
2022-12-28T01:24:13.280Z,1016.78
2022-12-28T01:25:13.413Z,1016.78
2022-12-28T01:26:13.436Z,1016.71
2022-12-28T01:27:13.520Z,1016.71
2022-12-28T01:28:14.446Z,1016.59
2022-12-28T01:29:13.365Z,1016.54
2022-12-28T01:30:13.895Z,1016.54
2022-12-28T01:31:12.972Z,1016.51
2022-12-28T01:32:13.194Z,1016.53
2022-12-28T01:33:13.224Z,1016.46
2022-12-28T01:34:13.098Z,1016.53
2022-12-28T01:35:13.140Z,1016.62
2022-12-28T01:36:13.260Z,1016.56
2022-12-28T01:37:13.567Z,1016.44
2022-12-28T01:38:13.533Z,1016.50
2022-12-28T01:39:13.576Z,1016.49
2022-12-28T01:40:13.699Z,1016.52
2022-12-28T01:41:13.747Z,1016.48
2022-12-28T01:42:13.842Z,1016.44
2022-12-28T01:43:13.747Z,1016.37
2022-12-28T01:44:13.816Z,1016.41
2022-12-28T01:45:13.912Z,1016.35
2022-12-28T01:46:12.931Z,1016.34
2022-12-28T01:47:12.838Z,1016.37
2022-12-28T01:48:13.920Z,1016.40
2022-12-28T01:49:12.968Z,1016.36
2022-12-28T01:50:13.092Z,1016.34
2022-12-28T01:51:13.310Z,1016.43
2022-12-28T01:52:13.714Z,1016.33
2022-12-28T01:53:13.877Z,1016.32
2022-12-28T01:54:13.857Z,1016.35
2022-12-28T01:55:13.750Z,1016.25
2022-12-28T01:56:13.852Z,1016.24
2022-12-28T01:57:14.199Z,1016.27
2022-12-28T01:58:13.492Z,1016.23
2022-12-28T01:59:13.755Z,1016.22
2022-12-28T02:00:13.713Z,1016.25
2022-12-28T02:01:13.992Z,1016.27
2022-12-28T02:02:13.269Z,1016.20
2022-12-28T02:03:13.287Z,1016.19
2022-12-28T02:04:13.533Z,1016.15
2022-12-28T02:05:13.411Z,1016.17
2022-12-28T02:06:13.504Z,1016.18
2022-12-28T02:07:14.303Z,1015.88
2022-12-28T02:08:13.263Z,1015.90
2022-12-28T02:09:13.464Z,1016.07
2022-12-28T02:10:42.507Z,1016.01
2022-12-28T02:11:12.870Z,1015.96
2022-12-28T02:12:13.881Z,1015.98
2022-12-28T02:13:14.210Z,1016.02
2022-12-28T02:14:13.152Z,1015.98
2022-12-28T02:15:17.045Z,1015.87
2022-12-28T02:16:14.299Z,1015.90
2022-12-28T02:17:13.248Z,1016.06
2022-12-28T02:18:13.201Z,1016.04
2022-12-28T02:19:13.571Z,1015.99
2022-12-28T02:20:13.639Z,1016.03
2022-12-28T02:21:13.485Z,1015.89
2022-12-28T02:22:13.554Z,1015.92
2022-12-28T02:23:13.982Z,1015.78
2022-12-28T02:24:13.281Z,1015.74
2022-12-28T02:25:13.867Z,1015.70
2022-12-28T02:26:13.270Z,1015.76
2022-12-28T02:27:13.286Z,1015.62
2022-12-28T02:28:13.494Z,1015.66
2022-12-28T02:29:13.539Z,1015.76
2022-12-28T02:30:13.481Z,1015.74
2022-12-28T02:31:13.640Z,1015.60
2022-12-28T02:32:13.624Z,1015.67
2022-12-28T02:33:13.550Z,1015.64
2022-12-28T02:34:13.701Z,1015.53
2022-12-28T02:35:13.604Z,1015.55
2022-12-28T02:36:18.359Z,1015.48
2022-12-28T02:37:13.760Z,1015.48
2022-12-28T02:38:13.949Z,1015.44
2022-12-28T02:39:13.027Z,1015.31
2022-12-28T02:40:12.973Z,1015.35
2022-12-28T02:41:13.008Z,1015.33
2022-12-28T02:42:13.161Z,1015.36
2022-12-28T02:43:13.403Z,1015.36
2022-12-28T02:44:13.548Z,1015.20
2022-12-28T02:45:13.468Z,1015.20
2022-12-28T02:46:13.473Z,1015.25
2022-12-28T02:47:13.344Z,1015.23
2022-12-28T02:48:13.543Z,1015.28
2022-12-28T02:49:13.628Z,1015.16
2022-12-28T02:50:13.608Z,1015.20
2022-12-28T02:51:13.455Z,1015.15
2022-12-28T02:52:13.887Z,1015.19
2022-12-28T02:53:12.827Z,1015.13
2022-12-28T02:54:14.116Z,1015.26
2022-12-28T02:55:15.600Z,1015.13
2022-12-28T02:56:13.164Z,1015.17
2022-12-28T02:57:13.216Z,1015.01
2022-12-28T02:58:13.111Z,1014.99
2022-12-28T02:59:13.254Z,1015.15
2022-12-28T03:00:13.229Z,1015.15
2022-12-28T03:01:13.371Z,1015.10
2022-12-28T03:02:13.514Z,1015.00
2022-12-28T03:03:15.757Z,1014.99
2022-12-28T03:04:13.062Z,1014.97
2022-12-28T03:05:13.399Z,1015.02
2022-12-28T03:06:19.148Z,1014.84
2022-12-28T03:07:13.652Z,1014.86
2022-12-28T03:08:13.910Z,1015.00
2022-12-28T03:09:12.887Z,1014.92
2022-12-28T03:10:12.768Z,1014.89
2022-12-28T03:11:16.108Z,1014.90
2022-12-28T03:12:15.712Z,1014.76
2022-12-28T03:13:13.932Z,1014.85
2022-12-28T03:14:12.880Z,1014.82
2022-12-28T03:15:12.868Z,1014.79
2022-12-28T03:16:14.175Z,1014.87
2022-12-28T03:17:13.466Z,1014.87
2022-12-28T03:18:13.419Z,1014.86
2022-12-28T03:19:13.658Z,1014.86
2022-12-28T03:20:13.557Z,1014.86
2022-12-28T03:21:13.750Z,1014.92
2022-12-28T03:22:13.793Z,1014.84
2022-12-28T03:23:13.695Z,1014.83
2022-12-28T03:24:13.673Z,1014.82
2022-12-28T03:25:13.587Z,1014.75
2022-12-28T03:26:13.633Z,1014.74
2022-12-28T03:27:13.572Z,1014.70
2022-12-28T03:28:13.504Z,1014.64
2022-12-28T03:29:13.735Z,1014.65
2022-12-28T03:30:13.784Z,1014.65
2022-12-28T03:31:13.741Z,1014.60
2022-12-28T03:32:14.245Z,1014.51
2022-12-28T03:33:13.555Z,1014.56
2022-12-28T03:34:13.510Z,1014.55
2022-12-28T03:35:13.472Z,1014.51
2022-12-28T03:36:13.384Z,1014.40
2022-12-28T03:37:14.129Z,1014.41
2022-12-28T03:38:13.630Z,1014.33
2022-12-28T03:39:14.025Z,1014.37
2022-12-28T03:40:13.297Z,1014.26
2022-12-28T03:41:13.351Z,1014.32
2022-12-28T03:42:13.261Z,1014.25
2022-12-28T03:43:13.288Z,1014.25
2022-12-28T03:44:13.356Z,1014.26
2022-12-28T03:45:13.590Z,1014.33
2022-12-28T03:46:13.300Z,1014.26
2022-12-28T03:47:13.321Z,1014.22
2022-12-28T03:48:13.537Z,1014.29
2022-12-28T03:49:13.490Z,1014.28
2022-12-28T03:50:13.409Z,1014.29
2022-12-28T03:51:13.697Z,1014.24
2022-12-28T03:52:13.822Z,1014.20
2022-12-28T03:53:14.151Z,1014.27
2022-12-28T03:54:13.420Z,1014.21
2022-12-28T03:55:13.441Z,1014.12
2022-12-28T03:56:13.401Z,1014.15
2022-12-28T03:57:13.844Z,1014.15
2022-12-28T03:58:13.858Z,1014.12
2022-12-28T03:59:13.718Z,1014.25
2022-12-28T04:00:13.669Z,1014.17
2022-12-28T04:01:13.786Z,1014.20
2022-12-28T04:02:14.061Z,1014.17
2022-12-28T04:03:13.182Z,1014.08
2022-12-28T04:04:13.258Z,1014.03
2022-12-28T04:05:13.455Z,1014.01
2022-12-28T04:06:13.386Z,1014.10
2022-12-28T04:07:13.394Z,1013.99
2022-12-28T04:08:13.356Z,1014.01
2022-12-28T04:09:13.492Z,1013.92
2022-12-28T04:10:13.509Z,1013.95
2022-12-28T04:11:13.437Z,1013.95
2022-12-28T04:12:13.401Z,1013.96
2022-12-28T04:13:13.320Z,1013.93
2022-12-28T04:14:13.270Z,1013.94
2022-12-28T04:15:13.206Z,1014.00
2022-12-28T04:16:13.380Z,1013.90
2022-12-28T04:17:13.567Z,1013.89
2022-12-28T04:18:13.776Z,1013.98
2022-12-28T04:19:14.011Z,1013.78
2022-12-28T04:20:13.278Z,1013.83
2022-12-28T04:21:13.513Z,1013.83
2022-12-28T04:22:13.343Z,1013.75
2022-12-28T04:23:13.802Z,1013.74
2022-12-28T04:24:14.100Z,1013.74
2022-12-28T04:25:13.348Z,1013.80
2022-12-28T04:26:13.277Z,1013.79
2022-12-28T04:27:13.119Z,1013.68
2022-12-28T04:28:13.136Z,1013.79
2022-12-28T04:29:13.141Z,1013.73
2022-12-28T04:30:13.146Z,1013.73
2022-12-28T04:31:13.386Z,1013.69
2022-12-28T04:32:13.295Z,1013.72
2022-12-28T04:33:13.400Z,1013.71
2022-12-28T04:34:13.295Z,1013.69
2022-12-28T04:35:13.229Z,1013.74
2022-12-28T04:36:13.456Z,1013.70
2022-12-28T04:37:13.581Z,1013.63
2022-12-28T04:38:13.819Z,1013.68
2022-12-28T04:39:18.831Z,1013.61
2022-12-28T04:40:14.126Z,1013.53
2022-12-28T04:41:13.205Z,1013.55
2022-12-28T04:42:13.412Z,1013.49
2022-12-28T04:43:13.462Z,1013.47
2022-12-28T04:44:13.785Z,1013.52
2022-12-28T04:45:18.376Z,1013.47
2022-12-28T04:46:13.054Z,1013.48
2022-12-28T04:47:13.066Z,1013.41
2022-12-28T04:48:13.051Z,1013.49
2022-12-28T04:49:12.979Z,1013.39
2022-12-28T04:50:13.067Z,1013.42
2022-12-28T04:51:12.956Z,1013.41
2022-12-28T04:52:12.814Z,1013.38
2022-12-28T04:53:13.889Z,1013.29
2022-12-28T04:54:12.865Z,1013.28
2022-12-28T04:55:31.302Z,1013.36
2022-12-28T04:56:13.524Z,1013.32
2022-12-28T04:57:13.454Z,1013.35
2022-12-28T04:58:13.560Z,1013.31
2022-12-28T04:59:13.744Z,1013.36
2022-12-28T05:00:13.775Z,1013.41
2022-12-28T05:01:14.103Z,1013.36
2022-12-28T05:02:13.178Z,1013.39
2022-12-28T05:03:13.175Z,1013.28
2022-12-28T05:04:13.040Z,1013.36
2022-12-28T05:05:13.093Z,1013.37
2022-12-28T05:06:13.282Z,1013.37
2022-12-28T05:07:13.214Z,1013.31
2022-12-28T05:08:13.104Z,1013.28
2022-12-28T05:09:12.962Z,1013.25
2022-12-28T05:10:13.337Z,1013.27
2022-12-28T05:11:13.267Z,1013.25
2022-12-28T05:12:13.219Z,1013.21
2022-12-28T05:13:13.469Z,1013.18
2022-12-28T05:14:13.345Z,1013.20
2022-12-28T05:15:13.380Z,1013.24
2022-12-28T05:16:13.419Z,1013.08
2022-12-28T05:17:13.446Z,1013.17
2022-12-28T05:18:13.375Z,1013.21
2022-12-28T05:19:13.649Z,1013.20
2022-12-28T05:20:13.679Z,1013.17
2022-12-28T05:21:13.808Z,1013.19
2022-12-28T05:22:13.912Z,1013.22
2022-12-28T05:23:12.770Z,1013.20
2022-12-28T05:24:13.725Z,1013.26
2022-12-28T05:25:13.782Z,1013.27
2022-12-28T05:26:13.679Z,1013.17
2022-12-28T05:27:13.742Z,1013.17
2022-12-28T05:28:13.673Z,1013.26
2022-12-28T05:29:13.695Z,1013.28
2022-12-28T05:30:13.665Z,1013.28
2022-12-28T05:31:13.784Z,1013.34
2022-12-28T05:32:13.497Z,1013.34
2022-12-28T05:33:13.431Z,1013.30
2022-12-28T05:34:13.486Z,1013.27
2022-12-28T05:35:13.941Z,1013.30
2022-12-28T05:36:12.911Z,1013.34
2022-12-28T05:37:17.015Z,1013.23
2022-12-28T05:38:13.847Z,1013.32
2022-12-28T05:39:13.755Z,1013.33
2022-12-28T05:40:13.708Z,1013.20
2022-12-28T05:41:13.901Z,1013.29
2022-12-28T05:42:12.873Z,1013.25
2022-12-28T05:43:13.712Z,1013.24
2022-12-28T05:44:13.664Z,1013.24
2022-12-28T05:45:13.715Z,1013.26
2022-12-28T05:46:13.899Z,1013.21
2022-12-28T05:47:13.034Z,1013.22
2022-12-28T05:48:12.998Z,1013.22
2022-12-28T05:49:13.464Z,1013.23
2022-12-28T05:50:13.387Z,1013.26
2022-12-28T05:51:13.653Z,1013.10
2022-12-28T05:52:14.273Z,1013.23
2022-12-28T05:53:13.704Z,1013.22
2022-12-28T05:54:13.628Z,1013.24
2022-12-28T05:55:13.611Z,1013.20
2022-12-28T05:56:14.825Z,1013.24
2022-12-28T05:57:13.458Z,1013.32
2022-12-28T05:58:13.309Z,1013.18
2022-12-28T05:59:13.241Z,1013.27
2022-12-28T06:00:13.254Z,1013.24
2022-12-28T06:01:13.245Z,1013.17
2022-12-28T06:02:13.542Z,1013.32
2022-12-28T06:03:13.819Z,1013.21
2022-12-28T06:04:13.025Z,1013.17
2022-12-28T06:05:13.031Z,1013.17
2022-12-28T06:06:12.947Z,1013.22
2022-12-28T06:07:13.007Z,1013.14
2022-12-28T06:08:16.103Z,1013.17
2022-12-28T06:09:13.790Z,1013.17
2022-12-28T06:10:13.656Z,1013.20
2022-12-28T06:11:14.263Z,1013.17
2022-12-28T06:12:13.214Z,1013.18
2022-12-28T06:13:13.453Z,1013.17
2022-12-28T06:14:13.439Z,1013.13
2022-12-28T06:15:13.290Z,1013.14
2022-12-28T06:16:14.985Z,1013.18
2022-12-28T06:17:13.380Z,1013.19
2022-12-28T06:18:13.262Z,1013.10
2022-12-28T06:19:13.237Z,1013.10
2022-12-28T06:20:13.511Z,1013.15
2022-12-28T06:21:13.606Z,1013.13
2022-12-28T06:22:13.930Z,1013.10
2022-12-28T06:23:13.240Z,1013.09
2022-12-28T06:24:13.443Z,1013.06
2022-12-28T06:25:13.498Z,1013.12
2022-12-28T06:26:13.412Z,1012.98
2022-12-28T06:27:13.589Z,1013.03
2022-12-28T06:28:13.557Z,1013.06
2022-12-28T06:29:13.530Z,1013.12
2022-12-28T06:30:13.589Z,1013.07
2022-12-28T06:31:13.526Z,1013.01
2022-12-28T06:32:13.942Z,1013.07
2022-12-28T06:33:12.879Z,1013.02
2022-12-28T06:34:14.070Z,1013.09
2022-12-28T06:35:13.111Z,1012.98
2022-12-28T06:36:19.421Z,1013.03
2022-12-28T06:37:13.129Z,1013.06
2022-12-28T06:38:13.128Z,1013.06
2022-12-28T06:39:13.052Z,1013.03
2022-12-28T06:40:13.117Z,1013.00
2022-12-28T06:41:14.803Z,1013.02
2022-12-28T06:42:13.153Z,1013.08
2022-12-28T06:43:13.495Z,1013.05
2022-12-28T06:44:13.719Z,1013.00
2022-12-28T06:45:13.863Z,1013.07
2022-12-28T06:46:14.206Z,1013.06
2022-12-28T06:47:13.291Z,1013.02
2022-12-28T06:48:13.259Z,1013.09
2022-12-28T06:49:13.389Z,1013.06
2022-12-28T06:50:13.419Z,1013.02
2022-12-28T06:51:14.217Z,1013.08
2022-12-28T06:52:13.465Z,1013.09
2022-12-28T06:53:13.493Z,1013.07
2022-12-28T06:54:13.563Z,1013.09
2022-12-28T06:55:13.562Z,1013.03
2022-12-28T06:56:13.411Z,1013.08
2022-12-28T06:57:14.028Z,1013.13
2022-12-28T06:58:13.052Z,1013.13
2022-12-28T06:59:13.098Z,1013.15
2022-12-28T07:00:13.032Z,1013.14
2022-12-28T07:01:13.377Z,1013.12
2022-12-28T07:02:13.884Z,1013.11
2022-12-28T07:03:13.181Z,1013.15
2022-12-28T07:04:13.166Z,1013.16
2022-12-28T07:05:13.044Z,1013.11
2022-12-28T07:06:12.980Z,1013.08
2022-12-28T07:07:13.588Z,1013.11
2022-12-28T07:08:13.560Z,1013.11
2022-12-28T07:09:13.722Z,1013.10
2022-12-28T07:10:12.998Z,1013.04
2022-12-28T07:11:13.168Z,1013.14
2022-12-28T07:12:13.460Z,1013.10
2022-12-28T07:13:13.764Z,1012.94
2022-12-28T07:14:14.053Z,1013.03
2022-12-28T07:15:12.964Z,1013.01
2022-12-28T07:16:23.107Z,1013.06
2022-12-28T07:17:13.152Z,1013.10
2022-12-28T07:18:13.808Z,1013.05
2022-12-28T07:19:13.799Z,1013.04
2022-12-28T07:20:13.726Z,1013.07
2022-12-28T07:21:13.707Z,1013.05
2022-12-28T07:22:15.150Z,1013.05
2022-12-28T07:23:13.476Z,1013.06
2022-12-28T07:24:13.396Z,1013.07
2022-12-28T07:25:13.567Z,1013.00
2022-12-28T07:26:13.916Z,1013.02
2022-12-28T07:27:12.950Z,1013.04
2022-12-28T07:28:12.976Z,1013.01
2022-12-28T07:29:12.984Z,1012.99
2022-12-28T07:30:12.921Z,1012.96
2022-12-28T07:31:13.269Z,1012.98
2022-12-28T07:32:13.329Z,1012.93
2022-12-28T07:33:13.473Z,1012.96
2022-12-28T07:34:14.085Z,1012.93
2022-12-28T07:35:18.406Z,1012.93
2022-12-28T07:36:13.314Z,1012.92
2022-12-28T07:37:13.650Z,1012.91
2022-12-28T07:38:17.961Z,1012.96
2022-12-28T07:39:13.273Z,1012.93
2022-12-28T07:40:13.195Z,1012.94
2022-12-28T07:41:13.558Z,1012.92
2022-12-28T07:42:13.638Z,1012.91
2022-12-28T07:43:13.611Z,1012.93
2022-12-28T07:44:13.819Z,1012.85
2022-12-28T07:45:13.848Z,1012.92
2022-12-28T07:46:13.935Z,1012.86
2022-12-28T07:47:12.901Z,1012.88
2022-12-28T07:48:13.610Z,1012.85
2022-12-28T07:49:13.960Z,1012.89
2022-12-28T07:50:14.158Z,1012.81
2022-12-28T07:51:13.284Z,1012.87
2022-12-28T07:52:13.421Z,1012.86
2022-12-28T07:53:16.053Z,1012.87
2022-12-28T07:54:32.548Z,1012.90
2022-12-28T07:55:13.724Z,1012.86
2022-12-28T07:56:14.164Z,1012.90
2022-12-28T07:57:13.292Z,1012.79
2022-12-28T07:58:13.469Z,1012.86
2022-12-28T07:59:13.866Z,1012.86
2022-12-28T08:00:13.766Z,1012.87
2022-12-28T08:01:14.252Z,1012.84
2022-12-28T08:02:13.444Z,1012.87
2022-12-28T08:03:13.599Z,1012.87
2022-12-28T08:04:18.774Z,1012.84
2022-12-28T08:05:14.233Z,1012.87
2022-12-28T08:06:13.250Z,1012.85
2022-12-28T08:07:13.446Z,1012.84
2022-12-28T08:08:13.325Z,1012.89
2022-12-28T08:09:13.855Z,1012.81
2022-12-28T08:10:13.822Z,1012.81
2022-12-28T08:11:13.833Z,1012.81
2022-12-28T08:12:15.946Z,1012.79
2022-12-28T08:13:13.302Z,1012.80
2022-12-28T08:14:13.152Z,1012.80
2022-12-28T08:15:13.326Z,1012.80
2022-12-28T08:16:13.583Z,1012.71
2022-12-28T08:17:17.488Z,1012.73
2022-12-28T08:18:12.955Z,1012.73
2022-12-28T08:19:13.976Z,1012.83
2022-12-28T08:20:13.212Z,1012.81
2022-12-28T08:21:13.480Z,1012.80
2022-12-28T08:22:13.638Z,1012.75
2022-12-28T08:23:13.630Z,1012.83
2022-12-28T08:24:13.788Z,1012.75
2022-12-28T08:25:14.000Z,1012.75
2022-12-28T08:26:12.998Z,1012.81
2022-12-28T08:27:13.189Z,1012.75
2022-12-28T08:28:13.227Z,1012.83
2022-12-28T08:29:13.445Z,1012.81
2022-12-28T08:30:13.448Z,1012.76
2022-12-28T08:31:13.888Z,1012.86
2022-12-28T08:32:13.147Z,1012.85
2022-12-28T08:33:13.321Z,1012.83
2022-12-28T08:34:13.458Z,1012.83
2022-12-28T08:35:13.405Z,1012.88
2022-12-28T08:36:13.366Z,1012.87
2022-12-28T08:37:18.327Z,1012.88
2022-12-28T08:38:13.239Z,1012.90
2022-12-28T08:39:13.567Z,1012.83
2022-12-28T08:40:13.480Z,1012.86
2022-12-28T08:41:13.849Z,1012.82
2022-12-28T08:42:13.837Z,1012.86
2022-12-28T08:43:13.684Z,1012.82
2022-12-28T08:44:13.570Z,1012.83
2022-12-28T08:45:13.492Z,1012.79
2022-12-28T08:46:13.608Z,1012.77
2022-12-28T08:47:14.041Z,1012.82
2022-12-28T08:48:13.027Z,1012.81
2022-12-28T08:49:13.107Z,1012.78
2022-12-28T08:50:14.236Z,1012.81
2022-12-28T08:51:13.221Z,1012.80
2022-12-28T08:52:13.071Z,1012.79
2022-12-28T08:53:13.463Z,1012.75
2022-12-28T08:54:14.027Z,1012.80
2022-12-28T08:55:13.169Z,1012.78
2022-12-28T08:56:13.552Z,1012.81
2022-12-28T08:57:13.703Z,1012.79
2022-12-28T08:58:13.871Z,1012.78
2022-12-28T08:59:13.909Z,1012.83
2022-12-28T09:00:13.089Z,1012.84
2022-12-28T09:01:13.558Z,1012.87
2022-12-28T09:02:14.398Z,1012.86
2022-12-28T09:03:13.708Z,1012.89
2022-12-28T09:04:13.857Z,1012.86
2022-12-28T09:05:13.947Z,1012.90
2022-12-28T09:06:12.993Z,1012.86
2022-12-28T09:07:12.964Z,1012.85
2022-12-28T09:08:12.927Z,1012.86
2022-12-28T09:09:13.006Z,1012.83
2022-12-28T09:10:13.294Z,1012.83
2022-12-28T09:11:13.455Z,1012.87
2022-12-28T09:12:13.708Z,1012.86
2022-12-28T09:13:14.538Z,1012.88
2022-12-28T09:14:18.864Z,1012.87
2022-12-28T09:15:13.680Z,1012.89
2022-12-28T09:16:13.774Z,1012.93
2022-12-28T09:17:13.734Z,1012.89
2022-12-28T09:18:14.121Z,1012.87
2022-12-28T09:19:13.172Z,1012.89
2022-12-28T09:20:13.062Z,1012.84
2022-12-28T09:21:18.337Z,1012.87
2022-12-28T09:22:13.758Z,1012.89
2022-12-28T09:23:18.804Z,1012.92
2022-12-28T09:24:13.751Z,1012.92
2022-12-28T09:25:13.992Z,1012.87
2022-12-28T09:26:13.489Z,1012.87
2022-12-28T09:27:13.536Z,1012.95
2022-12-28T09:28:13.852Z,1012.91
2022-12-28T09:29:18.803Z,1012.95
2022-12-28T09:30:13.713Z,1012.92
2022-12-28T09:31:13.884Z,1012.90
2022-12-28T09:32:13.061Z,1012.92
2022-12-28T09:33:13.061Z,1012.91
2022-12-28T09:34:37.203Z,1012.92
2022-12-28T09:35:12.877Z,1012.91
2022-12-28T09:36:14.051Z,1012.92
2022-12-28T09:37:13.320Z,1012.90
2022-12-28T09:38:13.598Z,1012.90
2022-12-28T09:39:13.744Z,1012.85
2022-12-28T09:40:13.974Z,1012.88
2022-12-28T09:41:13.476Z,1012.94
2022-12-28T09:42:13.493Z,1012.92
2022-12-28T09:43:13.566Z,1012.93
2022-12-28T09:44:13.569Z,1012.94
2022-12-28T09:45:13.828Z,1012.91
2022-12-28T09:46:14.024Z,1012.92
2022-12-28T09:47:13.146Z,1012.88
2022-12-28T09:48:13.065Z,1012.84
2022-12-28T09:49:13.088Z,1012.91
2022-12-28T09:50:13.142Z,1012.93
2022-12-28T09:51:13.039Z,1012.93
2022-12-28T09:52:13.018Z,1012.94
2022-12-28T09:53:13.492Z,1012.91
2022-12-28T09:54:13.455Z,1012.89
2022-12-28T09:55:13.474Z,1012.90
2022-12-28T09:56:13.454Z,1012.89
2022-12-28T09:57:13.481Z,1012.85
2022-12-28T09:58:18.526Z,1012.87
2022-12-28T09:59:13.386Z,1012.85
2022-12-28T10:00:13.563Z,1012.91
2022-12-28T10:01:13.750Z,1012.87
2022-12-28T10:02:13.940Z,1012.84
2022-12-28T10:03:13.457Z,1012.82
2022-12-28T10:04:13.601Z,1012.76
2022-12-28T10:05:13.509Z,1012.80
2022-12-28T10:06:13.381Z,1012.82
2022-12-28T10:07:13.622Z,1012.79
2022-12-28T10:08:13.742Z,1012.75
2022-12-28T10:09:14.574Z,1012.72
2022-12-28T10:10:13.472Z,1012.74
2022-12-28T10:11:13.534Z,1012.70
2022-12-28T10:12:13.570Z,1012.71
2022-12-28T10:13:45.545Z,1012.69
2022-12-28T10:14:13.621Z,1012.69
2022-12-28T10:15:13.570Z,1012.66
2022-12-28T10:16:14.847Z,1012.62
2022-12-28T10:17:13.853Z,1012.67
2022-12-28T10:18:14.161Z,1012.60
2022-12-28T10:19:13.120Z,1012.63
2022-12-28T10:20:13.115Z,1012.62
2022-12-28T10:21:13.587Z,1012.63
2022-12-28T10:22:13.621Z,1012.66
2022-12-28T10:23:13.605Z,1012.63
2022-12-28T10:24:32.939Z,1012.61
2022-12-28T10:25:13.369Z,1012.62
2022-12-28T10:26:13.590Z,1012.60
2022-12-28T10:27:13.813Z,1012.53
2022-12-28T10:28:14.183Z,1012.57
2022-12-28T10:29:13.354Z,1012.57
2022-12-28T10:30:13.280Z,1012.56
2022-12-28T10:31:13.346Z,1012.57
2022-12-28T10:32:13.686Z,1012.53
2022-12-28T10:33:13.985Z,1012.54
2022-12-28T10:34:13.203Z,1012.52
2022-12-28T10:35:13.340Z,1012.54
2022-12-28T10:36:13.581Z,1012.51
2022-12-28T10:37:14.470Z,1012.49
2022-12-28T10:38:13.527Z,1012.42
2022-12-28T10:39:13.259Z,1012.43
2022-12-28T10:40:13.476Z,1012.45
2022-12-28T10:41:14.615Z,1012.42
2022-12-28T10:42:13.916Z,1012.44
2022-12-28T10:43:13.344Z,1012.39
2022-12-28T10:44:38.353Z,1012.35
2022-12-28T10:45:13.446Z,1012.32
2022-12-28T10:46:13.525Z,1012.33
2022-12-28T10:47:13.624Z,1012.32
2022-12-28T10:48:13.910Z,1012.33
2022-12-28T10:49:15.713Z,1012.25
2022-12-28T10:50:37.237Z,1012.31
2022-12-28T10:51:14.175Z,1012.25
2022-12-28T10:52:13.490Z,1012.28
2022-12-28T10:53:13.620Z,1012.22
2022-12-28T10:54:13.677Z,1012.21
2022-12-28T10:55:13.477Z,1012.18
2022-12-28T10:56:13.603Z,1012.21
2022-12-28T10:57:13.738Z,1012.17
2022-12-28T10:58:30.104Z,1012.19
2022-12-28T10:59:12.951Z,1012.17
2022-12-28T11:00:13.237Z,1012.17
2022-12-28T11:01:13.490Z,1012.09
2022-12-28T11:02:14.075Z,1012.12
2022-12-28T11:03:13.667Z,1012.10
2022-12-28T11:04:13.598Z,1012.10
2022-12-28T11:05:13.843Z,1012.04
2022-12-28T11:06:13.866Z,1012.02
2022-12-28T11:07:13.867Z,1011.95
2022-12-28T11:08:13.987Z,1012.02
2022-12-28T11:09:12.969Z,1012.00
2022-12-28T11:10:13.022Z,1011.96
2022-12-28T11:11:12.952Z,1011.95
2022-12-28T11:12:12.850Z,1011.97
2022-12-28T11:13:17.009Z,1011.94
2022-12-28T11:14:13.510Z,1011.92
2022-12-28T11:15:13.512Z,1011.98
2022-12-28T11:16:13.640Z,1011.94
2022-12-28T11:17:13.654Z,1011.93
2022-12-28T11:18:13.916Z,1011.94
2022-12-28T11:19:12.992Z,1011.85
2022-12-28T11:20:13.428Z,1011.86
2022-12-28T11:21:13.809Z,1011.86
2022-12-28T11:22:14.108Z,1011.85
2022-12-28T11:23:13.414Z,1011.79
2022-12-28T11:24:13.569Z,1011.79
2022-12-28T11:25:13.862Z,1011.75
2022-12-28T11:26:13.819Z,1011.76
2022-12-28T11:27:38.934Z,1011.73
2022-12-28T11:28:12.928Z,1011.73
2022-12-28T11:29:13.225Z,1011.63
2022-12-28T11:30:17.281Z,1011.72
2022-12-28T11:31:12.903Z,1011.70
2022-12-28T11:32:13.308Z,1011.77
2022-12-28T11:33:13.636Z,1011.72
2022-12-28T11:34:13.736Z,1011.69
2022-12-28T11:35:13.832Z,1011.68
2022-12-28T11:36:13.880Z,1011.82
2022-12-28T11:37:14.014Z,1011.71
2022-12-28T11:38:13.440Z,1011.72
2022-12-28T11:39:13.655Z,1011.67
2022-12-28T11:40:13.701Z,1011.67
2022-12-28T11:41:13.742Z,1011.69
2022-12-28T11:42:39.040Z,1011.66
2022-12-28T11:43:13.872Z,1011.67
2022-12-28T11:44:14.258Z,1011.69
2022-12-28T11:45:13.218Z,1011.70
2022-12-28T11:46:13.226Z,1011.67
2022-12-28T11:47:13.337Z,1011.68
2022-12-28T11:48:13.626Z,1011.66
2022-12-28T11:49:13.888Z,1011.63
2022-12-28T11:50:12.829Z,1011.65
2022-12-28T11:51:14.035Z,1011.61
2022-12-28T11:52:13.131Z,1011.69
2022-12-28T11:53:14.108Z,1011.64
2022-12-28T11:54:13.302Z,1011.62
2022-12-28T11:55:13.235Z,1011.53
2022-12-28T11:56:13.214Z,1011.51
2022-12-28T11:57:13.376Z,1011.53
2022-12-28T11:58:13.469Z,1011.62
2022-12-28T11:59:13.699Z,1011.59
2022-12-28T12:00:19.966Z,1011.60
2022-12-28T12:01:13.209Z,1011.57
2022-12-28T12:02:13.337Z,1011.64
2022-12-28T12:03:13.308Z,1011.58
2022-12-28T12:04:13.357Z,1011.59
2022-12-28T12:05:13.217Z,1011.56